sensor_id;sensor_type;location;lat;lon;timestamp;pressure;altitude;pressure_sealevel;temperature;humidity
21129;BME280;10722;51.910;8.352;2023-08-21T00:01:59;101515.38;;;17.82;100.00
21129;BME280;10722;51.910;8.352;2023-08-21T00:04:45;101523.22;;;17.57;100.00
21129;BME280;10722;51.910;8.352;2023-08-21T00:07:30;101526.69;;;17.62;100.00
21129;BME280;10722;51.910;8.352;2023-08-21T00:10:15;101520.59;;;17.76;100.00
21129;BME280;10722;51.910;8.352;2023-08-21T00:13:00;101520.59;;;17.73;100.00
21129;BME280;10722;51.910;8.352;2023-08-21T00:15:45;101517.09;;;17.70;100.00
21129;BME280;10722;51.910;8.352;2023-08-21T00:18:30;101509.28;;;17.90;100.00
21129;BME280;10722;51.910;8.352;2023-08-21T00:21:15;101509.28;;;17.78;100.00
21129;BME280;10722;51.910;8.352;2023-08-21T00:24:00;101501.44;;;17.89;100.00
21129;BME280;10722;51.910;8.352;2023-08-21T00:26:45;101496.19;;;17.69;100.00
21129;BME280;10722;51.910;8.352;2023-08-21T00:29:31;101505.72;;;17.35;100.00
21129;BME280;10722;51.910;8.352;2023-08-21T00:32:16;101510.97;;;17.41;100.00
21129;BME280;10722;51.910;8.352;2023-08-21T00:35:02;101518.81;;;17.35;100.00
21129;BME280;10722;51.910;8.352;2023-08-21T00:37:47;101523.19;;;17.50;100.00
21129;BME280;10722;51.910;8.352;2023-08-21T00:40:32;101527.53;;;17.57;100.00
21129;BME280;10722;51.910;8.352;2023-08-21T00:43:18;101520.50;;;17.22;100.00
21129;BME280;10722;51.910;8.352;2023-08-21T00:46:03;101524.84;;;17.23;100.00
21129;BME280;10722;51.910;8.352;2023-08-21T00:48:49;101518.84;;;17.55;100.00
21129;BME280;10722;51.910;8.352;2023-08-21T00:51:34;101511.00;;;17.52;100.00
21129;BME280;10722;51.910;8.352;2023-08-21T00:54:20;101510.09;;;17.48;100.00
21129;BME280;10722;51.910;8.352;2023-08-21T00:57:06;101519.69;;;17.51;100.00
21129;BME280;10722;51.910;8.352;2023-08-21T00:59:52;101522.31;;;17.58;100.00
21129;BME280;10722;51.910;8.352;2023-08-21T01:02:37;101522.34;;;17.69;100.00
21129;BME280;10722;51.910;8.352;2023-08-21T01:05:24;101518.81;;;17.62;100.00
21129;BME280;10722;51.910;8.352;2023-08-21T01:14:36;101513.66;;;17.88;100.00
21129;BME280;10722;51.910;8.352;2023-08-21T01:17:28;101505.75;;;17.59;100.00
21129;BME280;10722;51.910;8.352;2023-08-21T01:20:15;101510.97;;;17.44;100.00
21129;BME280;10722;51.910;8.352;2023-08-21T01:23:04;101526.69;;;17.59;100.00
21129;BME280;10722;51.910;8.352;2023-08-21T01:25:50;101537.13;;;17.42;100.00
21129;BME280;10722;51.910;8.352;2023-08-21T01:28:37;101534.53;;;17.58;100.00
21129;BME280;10722;51.910;8.352;2023-08-21T01:31:29;101541.50;;;17.65;100.00
21129;BME280;10722;51.910;8.352;2023-08-21T01:34:16;101533.66;;;17.59;100.00
21129;BME280;10722;51.910;8.352;2023-08-21T01:37:03;101521.47;;;17.64;100.00
21129;BME280;10722;51.910;8.352;2023-08-21T01:39:49;101509.25;;;17.66;100.00
21129;BME280;10722;51.910;8.352;2023-08-21T01:42:34;101512.75;;;17.63;100.00
21129;BME280;10722;51.910;8.352;2023-08-21T01:45:21;101513.59;;;17.76;100.00
21129;BME280;10722;51.910;8.352;2023-08-21T01:48:06;101519.75;;;17.87;100.00
21129;BME280;10722;51.910;8.352;2023-08-21T01:50:51;101527.59;;;17.90;100.00
21129;BME280;10722;51.910;8.352;2023-08-21T01:53:36;101525.88;;;17.92;100.00
21129;BME280;10722;51.910;8.352;2023-08-21T01:56:21;101519.72;;;17.74;100.00
21129;BME280;10722;51.910;8.352;2023-08-21T01:59:06;101516.28;;;17.85;100.00
21129;BME280;10722;51.910;8.352;2023-08-21T02:01:52;101516.28;;;17.88;100.00
21129;BME280;10722;51.910;8.352;2023-08-21T02:04:37;101517.13;;;17.72;100.00
21129;BME280;10722;51.910;8.352;2023-08-21T02:07:22;101524.06;;;17.56;100.00
21129;BME280;10722;51.910;8.352;2023-08-21T02:10:08;101537.19;;;17.79;100.00
21129;BME280;10722;51.910;8.352;2023-08-21T02:12:53;101517.06;;;17.57;100.00
21129;BME280;10722;51.910;8.352;2023-08-21T02:15:38;101518.81;;;17.59;100.00
21129;BME280;10722;51.910;8.352;2023-08-21T02:18:23;101515.31;;;17.42;100.00
21129;BME280;10722;51.910;8.352;2023-08-21T02:21:08;101516.22;;;17.56;100.00
21129;BME280;10722;51.910;8.352;2023-08-21T02:23:53;101509.22;;;17.54;100.00
21129;BME280;10722;51.910;8.352;2023-08-21T02:26:38;101513.59;;;17.53;100.00
21129;BME280;10722;51.910;8.352;2023-08-21T02:29:23;101517.97;;;17.53;100.00
21129;BME280;10722;51.910;8.352;2023-08-21T02:32:08;101527.56;;;17.67;100.00
21129;BME280;10722;51.910;8.352;2023-08-21T02:34:53;101531.94;;;17.73;100.00
21129;BME280;10722;51.910;8.352;2023-08-21T02:37:38;101523.25;;;17.79;100.00
21129;BME280;10722;51.910;8.352;2023-08-21T02:40:23;101523.22;;;17.74;100.00
21129;BME280;10722;51.910;8.352;2023-08-21T02:43:09;101528.44;;;17.65;100.00
21129;BME280;10722;51.910;8.352;2023-08-21T02:45:54;101524.97;;;17.72;100.00
21129;BME280;10722;51.910;8.352;2023-08-21T02:48:39;101531.94;;;17.73;100.00
21129;BME280;10722;51.910;8.352;2023-08-21T02:51:24;101528.44;;;17.53;100.00
21129;BME280;10722;51.910;8.352;2023-08-21T02:54:09;101538.81;;;17.25;100.00
21129;BME280;10722;51.910;8.352;2023-08-21T02:56:54;101535.28;;;17.11;100.00
21129;BME280;10722;51.910;8.352;2023-08-21T02:59:39;101533.63;;;17.33;100.00
21129;BME280;10722;51.910;8.352;2023-08-21T03:02:24;101535.34;;;17.31;100.00
21129;BME280;10722;51.910;8.352;2023-08-21T03:05:10;101536.25;;;17.46;100.00
21129;BME280;10722;51.910;8.352;2023-08-21T03:07:56;101538.03;;;17.60;100.00
21129;BME280;10722;51.910;8.352;2023-08-21T03:10:41;101538.03;;;17.75;100.00
21129;BME280;10722;51.910;8.352;2023-08-21T03:13:26;101541.56;;;17.82;100.00
21129;BME280;10722;51.910;8.352;2023-08-21T03:16:11;101538.06;;;17.87;100.00
21129;BME280;10722;51.910;8.352;2023-08-21T03:18:59;101532.84;;;17.83;100.00
21129;BME280;10722;51.910;8.352;2023-08-21T03:21:45;101524.09;;;17.79;100.00
21129;BME280;10722;51.910;8.352;2023-08-21T03:24:30;101514.53;;;17.92;100.00
21129;BME280;10722;51.910;8.352;2023-08-21T03:27:15;101510.16;;;17.89;100.00
21129;BME280;10722;51.910;8.352;2023-08-21T03:30:00;101504.06;;;17.84;100.00
21129;BME280;10722;51.910;8.352;2023-08-21T03:32:45;101502.25;;;17.65;100.00
21129;BME280;10722;51.910;8.352;2023-08-21T03:35:31;101506.63;;;17.67;100.00
21129;BME280;10722;51.910;8.352;2023-08-21T03:38:15;101508.38;;;17.56;100.00
21129;BME280;10722;51.910;8.352;2023-08-21T03:41:01;101514.47;;;17.55;100.00
21129;BME280;10722;51.910;8.352;2023-08-21T03:43:46;101517.03;;;17.26;100.00
21129;BME280;10722;51.910;8.352;2023-08-21T03:46:32;101521.38;;;17.15;100.00
21129;BME280;10722;51.910;8.352;2023-08-21T03:49:17;101520.50;;;17.19;100.00
21129;BME280;10722;51.910;8.352;2023-08-21T03:52:04;101514.41;;;17.24;100.00
21129;BME280;10722;51.910;8.352;2023-08-21T03:54:50;101517.91;;;17.28;100.00
21129;BME280;10722;51.910;8.352;2023-08-21T03:57:35;101528.38;;;17.31;100.00
21129;BME280;10722;51.910;8.352;2023-08-21T04:00:20;101519.63;;;17.18;100.00
21129;BME280;10722;51.910;8.352;2023-08-21T04:03:05;101523.13;;;17.22;100.00
21129;BME280;10722;51.910;8.352;2023-08-21T04:05:53;101530.13;;;17.32;100.00
21129;BME280;10722;51.910;8.352;2023-08-21T04:08:38;101526.66;;;17.36;100.00
21129;BME280;10722;51.910;8.352;2023-08-21T04:11:24;101536.22;;;17.34;100.00
21129;BME280;10722;51.910;8.352;2023-08-21T04:14:09;101537.97;;;17.29;100.00
21129;BME280;10722;51.910;8.352;2023-08-21T04:16:55;101534.50;;;17.44;100.00
21129;BME280;10722;51.910;8.352;2023-08-21T04:19:40;101553.72;;;17.61;100.00
21129;BME280;10722;51.910;8.352;2023-08-21T04:22:25;101553.75;;;17.72;100.00
21129;BME280;10722;51.910;8.352;2023-08-21T04:25:10;101549.41;;;17.85;100.00
21129;BME280;10722;51.910;8.352;2023-08-21T04:27:55;101533.69;;;17.71;100.00
21129;BME280;10722;51.910;8.352;2023-08-21T04:30:41;101536.34;;;17.86;100.00
21129;BME280;10722;51.910;8.352;2023-08-21T04:33:27;101524.06;;;17.76;100.00
21129;BME280;10722;51.910;8.352;2023-08-21T04:36:17;101534.53;;;17.73;100.00
21129;BME280;10722;51.910;8.352;2023-08-21T04:39:02;101539.84;;;17.88;100.00
21129;BME280;10722;51.910;8.352;2023-08-21T04:41:47;101534.59;;;17.81;100.00
21129;BME280;10722;51.910;8.352;2023-08-21T04:44:32;101554.63;;;17.74;100.00
21129;BME280;10722;51.910;8.352;2023-08-21T04:47:22;101565.13;;;17.86;100.00
21129;BME280;10722;51.910;8.352;2023-08-21T04:50:08;101553.75;;;17.75;100.00
21129;BME280;10722;51.910;8.352;2023-08-21T04:52:53;101527.59;;;17.77;100.00
21129;BME280;10722;51.910;8.352;2023-08-21T04:55:42;101527.63;;;17.86;100.00
21129;BME280;10722;51.910;8.352;2023-08-21T04:58:27;101517.13;;;17.81;100.00
21129;BME280;10722;51.910;8.352;2023-08-21T05:01:13;101523.25;;;17.99;100.00
21129;BME280;10722;51.910;8.352;2023-08-21T05:03:58;101519.78;;;17.97;100.00
21129;BME280;10722;51.910;8.352;2023-08-21T05:06:44;101532.84;;;18.17;100.00
21129;BME280;10722;51.910;8.352;2023-08-21T05:09:28;101542.41;;;18.27;100.00
21129;BME280;10722;51.910;8.352;2023-08-21T05:12:14;101546.75;;;18.38;100.00
21129;BME280;10722;51.910;8.352;2023-08-21T05:14:59;101554.66;;;18.42;100.00
21129;BME280;10722;51.910;8.352;2023-08-21T05:17:44;101556.41;;;18.30;100.00
21129;BME280;10722;51.910;8.352;2023-08-21T05:20:29;101528.41;;;18.52;100.00
21129;BME280;10722;51.910;8.352;2023-08-21T05:23:15;101511.81;;;18.44;100.00
21129;BME280;10722;51.910;8.352;2023-08-21T05:26:01;101497.88;;;18.41;100.00
21129;BME280;10722;51.910;8.352;2023-08-21T05:28:46;101506.59;;;18.41;100.00
21129;BME280;10722;51.910;8.352;2023-08-21T05:31:30;101509.16;;;18.63;100.00
21129;BME280;10722;51.910;8.352;2023-08-21T05:34:16;101499.56;;;18.60;100.00
21129;BME280;10722;51.910;8.352;2023-08-21T05:37:01;101490.91;;;18.33;100.00
21129;BME280;10722;51.910;8.352;2023-08-21T05:39:46;101507.50;;;18.32;100.00
21129;BME280;10722;51.910;8.352;2023-08-21T05:42:31;101529.31;;;18.41;100.00
21129;BME280;10722;51.910;8.352;2023-08-21T05:45:16;101540.59;;;18.61;100.00
21129;BME280;10722;51.910;8.352;2023-08-21T05:48:01;101550.22;;;18.74;100.00
21129;BME280;10722;51.910;8.352;2023-08-21T05:50:53;101544.91;;;18.96;100.00
21129;BME280;10722;51.910;8.352;2023-08-21T05:53:38;101528.19;;;19.17;100.00
21129;BME280;10722;51.910;8.352;2023-08-21T05:56:23;101524.59;;;19.38;100.00
21129;BME280;10722;51.910;8.352;2023-08-21T05:59:10;101522.78;;;19.49;100.00
21129;BME280;10722;51.910;8.352;2023-08-21T06:01:55;101519.16;;;19.62;100.00
21129;BME280;10722;51.910;8.352;2023-08-21T06:04:41;101513.00;;;19.74;100.00
21129;BME280;10722;51.910;8.352;2023-08-21T06:07:27;101510.25;;;19.85;100.00
21129;BME280;10722;51.910;8.352;2023-08-21T06:10:12;101509.41;;;19.86;100.00
21129;BME280;10722;51.910;8.352;2023-08-21T06:12:57;101509.22;;;20.04;100.00
21129;BME280;10722;51.910;8.352;2023-08-21T06:15:44;101497.56;;;20.31;100.00
21129;BME280;10722;51.910;8.352;2023-08-21T06:18:29;101477.19;;;20.56;98.46
21129;BME280;10722;51.910;8.352;2023-08-21T06:21:14;101442.06;;;20.62;93.92
21129;BME280;10722;51.910;8.352;2023-08-21T06:24:00;101422.63;;;20.75;91.31
21129;BME280;10722;51.910;8.352;2023-08-21T06:26:48;101418.09;;;20.87;90.25
21129;BME280;10722;51.910;8.352;2023-08-21T06:29:33;101420.53;;;20.99;88.89
21129;BME280;10722;51.910;8.352;2023-08-21T06:32:21;101436.91;;;21.18;89.18
21129;BME280;10722;51.910;8.352;2023-08-21T06:35:06;101472.59;;;21.36;90.24
21129;BME280;10722;51.910;8.352;2023-08-21T06:37:51;101479.44;;;21.49;90.57
21129;BME280;10722;51.910;8.352;2023-08-21T06:40:36;101491.56;;;21.59;92.05
21129;BME280;10722;51.910;8.352;2023-08-21T06:43:22;101451.13;;;21.63;89.47
21129;BME280;10722;51.910;8.352;2023-08-21T06:46:07;101403.00;;;21.54;86.04
21129;BME280;10722;51.910;8.352;2023-08-21T06:48:53;101392.41;;;21.58;85.43
21129;BME280;10722;51.910;8.352;2023-08-21T06:51:38;101399.00;;;21.82;84.63
21129;BME280;10722;51.910;8.352;2023-08-21T06:54:23;101383.50;;;22.13;82.62
21129;BME280;10722;51.910;8.352;2023-08-21T06:57:08;101381.97;;;22.45;81.40
21129;BME280;10722;51.910;8.352;2023-08-21T06:59:53;101379.75;;;22.66;80.56
21129;BME280;10722;51.910;8.352;2023-08-21T07:02:39;101383.25;;;22.66;80.40
21129;BME280;10722;51.910;8.352;2023-08-21T07:05:24;101389.94;;;22.82;79.33
21129;BME280;10722;51.910;8.352;2023-08-21T07:08:09;101351.53;;;23.08;77.61
21129;BME280;10722;51.910;8.352;2023-08-21T07:10:54;101322.34;;;23.14;75.34
21129;BME280;10722;51.910;8.352;2023-08-21T07:13:39;101347.44;;;23.32;75.20
21129;BME280;10722;51.910;8.352;2023-08-21T07:16:24;101340.13;;;23.42;72.92
21129;BME280;10722;51.910;8.352;2023-08-21T07:19:09;101340.59;;;23.58;72.07
21129;BME280;10722;51.910;8.352;2023-08-21T07:21:54;101307.06;;;23.61;69.99
21129;BME280;10722;51.910;8.352;2023-08-21T07:24:39;101323.75;;;23.62;69.41
21129;BME280;10722;51.910;8.352;2023-08-21T07:27:24;101343.50;;;23.83;69.37
21129;BME280;10722;51.910;8.352;2023-08-21T07:30:10;101334.63;;;23.84;68.80
21129;BME280;10722;51.910;8.352;2023-08-21T07:32:55;101350.13;;;23.96;68.78
21129;BME280;10722;51.910;8.352;2023-08-21T07:35:40;101376.91;;;24.15;69.57
21129;BME280;10722;51.910;8.352;2023-08-21T07:38:25;101367.84;;;24.24;69.23
21129;BME280;10722;51.910;8.352;2023-08-21T07:41:11;101355.28;;;24.32;68.13
21129;BME280;10722;51.910;8.352;2023-08-21T07:43:57;101372.50;;;24.15;68.57
21129;BME280;10722;51.910;8.352;2023-08-21T07:46:42;101380.97;;;24.58;68.23
21129;BME280;10722;51.910;8.352;2023-08-21T07:49:27;101363.97;;;24.67;66.82
21129;BME280;10722;51.910;8.352;2023-08-21T07:52:12;101314.59;;;24.66;63.85
21129;BME280;10722;51.910;8.352;2023-08-21T07:54:57;101316.78;;;24.81;63.39
21129;BME280;10722;51.910;8.352;2023-08-21T07:57:42;101334.16;;;24.62;63.83
21129;BME280;10722;51.910;8.352;2023-08-21T08:00:27;101312.53;;;24.75;62.30
21129;BME280;10722;51.910;8.352;2023-08-21T08:03:12;101335.81;;;24.92;63.05
21129;BME280;10722;51.910;8.352;2023-08-21T08:05:57;101329.13;;;24.80;61.92
21129;BME280;10722;51.910;8.352;2023-08-21T08:08:42;101314.75;;;24.89;60.97
21129;BME280;10722;51.910;8.352;2023-08-21T08:11:27;101325.38;;;24.88;61.52
21129;BME280;10722;51.910;8.352;2023-08-21T08:14:12;101350.47;;;25.02;61.82
21129;BME280;10722;51.910;8.352;2023-08-21T08:16:57;101306.06;;;25.11;59.70
21129;BME280;10722;51.910;8.352;2023-08-21T08:19:43;101338.28;;;24.97;61.29
21129;BME280;10722;51.910;8.352;2023-08-21T08:22:28;101328.94;;;24.87;60.31
21129;BME280;10722;51.910;8.352;2023-08-21T08:25:13;101337.31;;;24.73;60.53
21129;BME280;10722;51.910;8.352;2023-08-21T08:27:58;101359.00;;;24.84;61.01
21129;BME280;10722;51.910;8.352;2023-08-21T08:30:43;101365.94;;;24.88;61.45
21129;BME280;10722;51.910;8.352;2023-08-21T08:33:28;101375.13;;;24.76;62.28
21129;BME280;10722;51.910;8.352;2023-08-21T08:36:13;101382.41;;;24.98;61.98
21129;BME280;10722;51.910;8.352;2023-08-21T08:38:58;101376.59;;;25.15;62.22
21129;BME280;10722;51.910;8.352;2023-08-21T08:41:51;101389.63;;;25.72;62.17
21129;BME280;10722;51.910;8.352;2023-08-21T08:44:39;101316.84;;;25.83;58.59
21129;BME280;10722;51.910;8.352;2023-08-21T08:47:24;101348.88;;;26.02;59.24
21129;BME280;10722;51.910;8.352;2023-08-21T08:50:11;101349.44;;;26.33;58.94
21129;BME280;10722;51.910;8.352;2023-08-21T08:52:57;101320.94;;;26.38;57.65
21129;BME280;10722;51.910;8.352;2023-08-21T08:56:00;101299.56;;;26.87;56.13
21129;BME280;10722;51.910;8.352;2023-08-21T08:58:46;101321.34;;;27.17;56.66
21129;BME280;10722;51.910;8.352;2023-08-21T09:01:31;101285.53;;;27.46;54.98
21129;BME280;10722;51.910;8.352;2023-08-21T09:04:17;101320.28;;;27.42;56.46
21129;BME280;10722;51.910;8.352;2023-08-21T09:07:06;101296.72;;;27.12;55.18
21129;BME280;10722;51.910;8.352;2023-08-21T09:09:52;101294.81;;;26.73;55.26
21129;BME280;10722;51.910;8.352;2023-08-21T09:12:37;101323.00;;;26.98;55.20
21129;BME280;10722;51.910;8.352;2023-08-21T09:15:27;101322.25;;;27.16;54.47
21129;BME280;10722;51.910;8.352;2023-08-21T09:18:25;101356.88;;;27.56;55.47
21129;BME280;10722;51.910;8.352;2023-08-21T09:21:11;101315.63;;;27.26;54.80
21129;BME280;10722;51.910;8.352;2023-08-21T09:23:58;101308.78;;;27.21;54.50
21129;BME280;10722;51.910;8.352;2023-08-21T09:26:44;101343.81;;;27.51;55.44
21129;BME280;10722;51.910;8.352;2023-08-21T09:29:38;101289.38;;;27.19;53.68
21129;BME280;10722;51.910;8.352;2023-08-21T09:32:24;101320.22;;;27.23;54.70
21129;BME280;10722;51.910;8.352;2023-08-21T09:35:13;101323.28;;;27.12;54.87
21129;BME280;10722;51.910;8.352;2023-08-21T09:37:59;101357.34;;;27.65;55.66
21129;BME280;10722;51.910;8.352;2023-08-21T09:40:51;101330.56;;;27.70;54.58
21129;BME280;10722;51.910;8.352;2023-08-21T09:43:41;101325.72;;;27.39;54.65
21129;BME280;10722;51.910;8.352;2023-08-21T09:46:27;101326.19;;;27.48;54.96
21129;BME280;10722;51.910;8.352;2023-08-21T09:49:13;101302.31;;;27.88;53.37
21129;BME280;10722;51.910;8.352;2023-08-21T09:51:59;101329.59;;;27.32;55.16
21129;BME280;10722;51.910;8.352;2023-08-21T09:54:44;101329.50;;;27.54;54.51
21129;BME280;10722;51.910;8.352;2023-08-21T09:57:29;101312.31;;;27.21;54.48
21129;BME280;10722;51.910;8.352;2023-08-21T10:00:16;101311.34;;;26.80;54.82
21129;BME280;10722;51.910;8.352;2023-08-21T10:03:08;101337.66;;;26.64;55.86
21129;BME280;10722;51.910;8.352;2023-08-21T10:05:57;101359.06;;;26.59;56.74
21129;BME280;10722;51.910;8.352;2023-08-21T10:08:45;101353.56;;;26.41;56.89
21129;BME280;10722;51.910;8.352;2023-08-21T10:11:31;101359.94;;;26.82;56.93
21129;BME280;10722;51.910;8.352;2023-08-21T10:14:17;101351.41;;;26.96;56.22
21129;BME280;10722;51.910;8.352;2023-08-21T10:17:03;101341.06;;;27.10;55.99
21129;BME280;10722;51.910;8.352;2023-08-21T10:19:51;101382.44;;;27.17;57.56
21129;BME280;10722;51.910;8.352;2023-08-21T10:22:39;101359.25;;;27.21;56.80
21129;BME280;10722;51.910;8.352;2023-08-21T10:25:26;101335.75;;;27.10;55.69
21129;BME280;10722;51.910;8.352;2023-08-21T10:28:16;101353.81;;;27.24;56.46
21129;BME280;10722;51.910;8.352;2023-08-21T10:31:38;101326.00;;;27.11;55.74
21129;BME280;10722;51.910;8.352;2023-08-21T10:34:31;101363.75;;;26.75;57.56
21129;BME280;10722;51.910;8.352;2023-08-21T10:37:16;101343.88;;;26.63;56.61
21129;BME280;10722;51.910;8.352;2023-08-21T10:40:01;101347.34;;;26.42;57.54
21129;BME280;10722;51.910;8.352;2023-08-21T10:42:46;101378.09;;;26.47;59.16
21129;BME280;10722;51.910;8.352;2023-08-21T10:45:31;101369.44;;;26.42;58.45
21129;BME280;10722;51.910;8.352;2023-08-21T10:48:16;101401.19;;;26.44;59.63
21129;BME280;10722;51.910;8.352;2023-08-21T10:51:03;101370.66;;;26.33;58.65
21129;BME280;10722;51.910;8.352;2023-08-21T10:53:48;101352.31;;;26.27;58.24
21129;BME280;10722;51.910;8.352;2023-08-21T10:56:33;101360.03;;;26.33;58.31
21129;BME280;10722;51.910;8.352;2023-08-21T10:59:18;101366.88;;;26.15;59.04
21129;BME280;10722;51.910;8.352;2023-08-21T11:02:03;101373.41;;;26.07;59.70
21129;BME280;10722;51.910;8.352;2023-08-21T11:04:49;101391.16;;;26.05;60.53
21129;BME280;10722;51.910;8.352;2023-08-21T11:07:43;101384.81;;;26.09;60.45
21129;BME280;10722;51.910;8.352;2023-08-21T11:10:31;101388.06;;;26.17;60.81
21129;BME280;10722;51.910;8.352;2023-08-21T11:13:16;101358.94;;;25.92;59.35
21129;BME280;10722;51.910;8.352;2023-08-21T11:16:05;101369.41;;;25.95;59.90
21129;BME280;10722;51.910;8.352;2023-08-21T11:18:51;101373.25;;;25.86;60.21
21129;BME280;10722;51.910;8.352;2023-08-21T11:21:36;101388.56;;;26.03;61.48
21129;BME280;10722;51.910;8.352;2023-08-21T11:24:21;101397.06;;;26.13;61.39
21129;BME280;10722;51.910;8.352;2023-08-21T11:27:08;101408.03;;;26.27;61.48
21129;BME280;10722;51.910;8.352;2023-08-21T11:29:53;101371.38;;;26.37;60.00
21129;BME280;10722;51.910;8.352;2023-08-21T11:32:38;101347.69;;;26.32;58.42
21129;BME280;10722;51.910;8.352;2023-08-21T11:35:27;101347.56;;;26.35;58.98
21129;BME280;10722;51.910;8.352;2023-08-21T11:38:18;101375.25;;;26.28;60.04
21129;BME280;10722;51.910;8.352;2023-08-21T11:41:05;101369.31;;;26.45;60.46
21129;BME280;10722;51.910;8.352;2023-08-21T11:43:50;101361.22;;;26.48;59.60
21129;BME280;10722;51.910;8.352;2023-08-21T11:46:35;101312.28;;;26.33;57.16
21129;BME280;10722;51.910;8.352;2023-08-21T11:49:21;101336.50;;;26.48;58.07
21129;BME280;10722;51.910;8.352;2023-08-21T11:52:06;101322.38;;;26.24;57.33
21129;BME280;10722;51.910;8.352;2023-08-21T11:54:53;101359.00;;;26.61;58.84
21129;BME280;10722;51.910;8.352;2023-08-21T11:57:52;101346.84;;;27.42;57.22
21129;BME280;10722;51.910;8.352;2023-08-21T12:00:39;101315.72;;;27.45;55.90
21129;BME280;10722;51.910;8.352;2023-08-21T12:03:24;101361.44;;;27.93;58.64
21129;BME280;10722;51.910;8.352;2023-08-21T12:06:11;101292.75;;;27.84;54.85
21129;BME280;10722;51.910;8.352;2023-08-21T12:08:56;101310.31;;;27.88;55.16
21129;BME280;10722;51.910;8.352;2023-08-21T12:11:42;101308.69;;;28.42;55.06
21129;BME280;10722;51.910;8.352;2023-08-21T12:14:28;101290.88;;;28.62;54.29
21129;BME280;10722;51.910;8.352;2023-08-21T12:17:13;101300.38;;;29.21;53.76
21129;BME280;10722;51.910;8.352;2023-08-21T12:19:58;101312.16;;;28.98;55.19
21129;BME280;10722;51.910;8.352;2023-08-21T12:22:46;101281.94;;;28.07;54.45
21129;BME280;10722;51.910;8.352;2023-08-21T12:25:31;101309.28;;;27.70;55.93
21129;BME280;10722;51.910;8.352;2023-08-21T12:28:16;101320.91;;;27.67;56.97
21129;BME280;10722;51.910;8.352;2023-08-21T12:31:02;101284.97;;;27.40;55.10
21129;BME280;10722;51.910;8.352;2023-08-21T12:33:47;101325.25;;;28.09;55.86
21129;BME280;10722;51.910;8.352;2023-08-21T12:36:35;101257.53;;;28.72;52.56
21129;BME280;10722;51.910;8.352;2023-08-21T12:39:20;101254.31;;;27.91;53.33
21129;BME280;10722;51.910;8.352;2023-08-21T12:42:05;101299.41;;;28.13;55.38
21129;BME280;10722;51.910;8.352;2023-08-21T12:44:50;101261.28;;;28.12;53.69
21129;BME280;10722;51.910;8.352;2023-08-21T12:47:35;101292.91;;;28.56;53.87
21129;BME280;10722;51.910;8.352;2023-08-21T12:50:21;101282.03;;;29.15;53.65
21129;BME280;10722;51.910;8.352;2023-08-21T12:53:06;101243.25;;;29.60;51.42
21129;BME280;10722;51.910;8.352;2023-08-21T12:55:51;101259.81;;;29.49;52.19
21129;BME280;10722;51.910;8.352;2023-08-21T12:58:36;101241.44;;;29.60;51.26
21129;BME280;10722;51.910;8.352;2023-08-21T13:01:21;101285.81;;;28.92;54.89
21129;BME280;10722;51.910;8.352;2023-08-21T13:04:06;101232.00;;;29.20;51.77
21129;BME280;10722;51.910;8.352;2023-08-21T13:06:52;101260.22;;;28.89;53.30
21129;BME280;10722;51.910;8.352;2023-08-21T13:09:37;101275.41;;;28.87;54.59
21129;BME280;10722;51.910;8.352;2023-08-21T13:12:22;101254.22;;;29.71;52.39
21129;BME280;10722;51.910;8.352;2023-08-21T13:15:07;101213.69;;;29.64;50.76
21129;BME280;10722;51.910;8.352;2023-08-21T13:17:52;101230.38;;;29.68;51.36
21129;BME280;10722;51.910;8.352;2023-08-21T13:20:38;101205.19;;;29.56;50.02
21129;BME280;10722;51.910;8.352;2023-08-21T13:23:23;101189.28;;;28.34;50.94
21129;BME280;10722;51.910;8.352;2023-08-21T13:26:08;101236.84;;;28.59;52.10
21129;BME280;10722;51.910;8.352;2023-08-21T13:28:54;101295.00;;;28.50;55.56
21129;BME280;10722;51.910;8.352;2023-08-21T13:31:38;101244.53;;;28.10;53.37
21129;BME280;10722;51.910;8.352;2023-08-21T13:34:24;101249.78;;;28.12;53.86
21129;BME280;10722;51.910;8.352;2023-08-21T13:37:09;101263.94;;;28.12;54.25
21129;BME280;10722;51.910;8.352;2023-08-21T13:39:54;101264.66;;;27.97;54.74
21129;BME280;10722;51.910;8.352;2023-08-21T13:42:48;101291.88;;;27.83;55.76
21129;BME280;10722;51.910;8.352;2023-08-21T13:45:34;101287.34;;;28.04;55.37
21129;BME280;10722;51.910;8.352;2023-08-21T13:48:18;101276.72;;;27.65;55.26
21129;BME280;10722;51.910;8.352;2023-08-21T13:51:03;101279.28;;;27.68;55.91
21129;BME280;10722;51.910;8.352;2023-08-21T13:53:48;101284.00;;;27.41;55.78
21129;BME280;10722;51.910;8.352;2023-08-21T13:56:33;101273.19;;;27.45;55.14
21129;BME280;10722;51.910;8.352;2023-08-21T13:59:19;101291.97;;;27.41;56.49
21129;BME280;10722;51.910;8.352;2023-08-21T14:02:04;101279.66;;;27.59;55.52
21129;BME280;10722;51.910;8.352;2023-08-21T14:04:49;101274.44;;;27.57;55.69
21129;BME280;10722;51.910;8.352;2023-08-21T14:07:34;101277.63;;;27.45;55.89
21129;BME280;10722;51.910;8.352;2023-08-21T14:10:21;101257.13;;;27.48;55.62
21129;BME280;10722;51.910;8.352;2023-08-21T14:13:06;101301.28;;;27.31;58.42
21129;BME280;10722;51.910;8.352;2023-08-21T14:15:51;101294.50;;;27.23;58.63
21129;BME280;10722;51.910;8.352;2023-08-21T14:18:36;101312.59;;;27.14;60.00
21129;BME280;10722;51.910;8.352;2023-08-21T14:21:21;101301.19;;;27.12;59.69
21129;BME280;10722;51.910;8.352;2023-08-21T14:24:06;101302.34;;;27.26;58.92
21129;BME280;10722;51.910;8.352;2023-08-21T14:26:51;101273.19;;;27.25;57.06
21129;BME280;10722;51.910;8.352;2023-08-21T14:29:37;101264.34;;;27.24;56.82